createdAt,value
2018-01-31T01:53:18.848Z,8.00
2018-01-31T01:55:52.941Z,20.60
2018-01-31T01:58:27.033Z,8.23
2018-01-31T02:01:00.986Z,8.20
2018-01-31T02:03:35.872Z,8.30
2018-01-31T02:06:10.380Z,7.77
2018-01-31T02:08:44.249Z,14.67
2018-01-31T02:11:18.396Z,7.07
2018-01-31T02:13:52.935Z,8.10
2018-01-31T02:16:28.057Z,11.23
2018-01-31T02:19:02.571Z,8.77
2018-01-31T02:21:37.130Z,6.80
2018-01-31T02:24:11.857Z,8.17
2018-01-31T02:26:47.363Z,8.13
2018-01-31T02:29:21.317Z,10.57
2018-01-31T02:31:56.269Z,6.50
2018-01-31T02:34:30.385Z,10.13
2018-01-31T02:37:04.297Z,7.20
2018-01-31T02:39:50.947Z,6.97
2018-01-31T02:42:25.377Z,11.47
2018-01-31T02:45:00.528Z,9.07
2018-01-31T02:47:35.909Z,6.23
2018-01-31T02:50:10.345Z,7.40
2018-01-31T02:52:45.093Z,6.57
2018-01-31T02:55:19.873Z,6.80
2018-01-31T02:57:54.035Z,7.73
2018-01-31T03:00:28.253Z,5.73
2018-01-31T03:03:02.822Z,5.17
2018-01-31T03:05:36.857Z,5.47
2018-01-31T03:08:11.086Z,4.57
2018-01-31T03:10:44.927Z,4.60
2018-01-31T03:13:19.782Z,5.00
2018-01-31T03:15:54.049Z,5.27
2018-01-31T03:18:28.084Z,7.07
2018-01-31T03:21:02.905Z,6.77
2018-01-31T03:23:37.315Z,4.93
2018-01-31T03:26:11.171Z,4.33
2018-01-31T03:28:45.223Z,4.07
2018-01-31T03:31:19.471Z,7.97
2018-01-31T03:33:54.329Z,4.40
2018-01-31T03:36:28.828Z,4.60
2018-01-31T03:39:02.821Z,4.70
2018-01-31T03:41:36.568Z,3.80
2018-01-31T03:44:10.464Z,3.83
2018-01-31T03:46:44.283Z,5.37
2018-01-31T03:49:18.246Z,4.57
2018-01-31T03:51:52.272Z,4.00
2018-01-31T03:54:27.900Z,5.67
2018-01-31T03:57:01.715Z,3.80
2018-01-31T03:59:35.979Z,5.17
2018-01-31T04:02:09.706Z,5.00
2018-01-31T04:04:43.579Z,4.90
2018-01-31T04:07:17.470Z,4.63
2018-01-31T04:09:51.763Z,4.90
2018-01-31T04:12:25.878Z,4.30
2018-01-31T04:15:01.388Z,5.23
2018-01-31T04:17:35.749Z,5.67
2018-01-31T04:20:11.057Z,5.73
2018-01-31T04:22:45.926Z,5.50
2018-01-31T04:25:20.084Z,6.17
2018-01-31T04:27:53.925Z,4.90
2018-01-31T04:30:28.596Z,5.70
2018-01-31T04:33:03.716Z,5.20
2018-01-31T04:36:01.311Z,4.20
2018-01-31T04:38:35.636Z,4.37
2018-01-31T04:41:10.117Z,5.80
2018-01-31T04:43:44.648Z,4.20
2018-01-31T04:46:19.092Z,4.50
2018-01-31T04:48:53.000Z,4.43
2018-01-31T04:51:27.016Z,4.80
2018-01-31T04:54:00.861Z,4.40
2018-01-31T04:56:34.842Z,4.00
2018-01-31T04:59:08.941Z,4.50
2018-01-31T05:01:43.096Z,4.10
2018-01-31T05:04:16.963Z,5.17
2018-01-31T05:06:52.277Z,5.00
2018-01-31T05:09:26.407Z,5.20
2018-01-31T05:12:00.651Z,3.93
2018-01-31T05:14:34.494Z,4.20
2018-01-31T05:17:09.348Z,5.57
2018-01-31T05:19:43.701Z,4.93
2018-01-31T05:22:17.673Z,4.80
2018-01-31T05:24:51.426Z,5.33
2018-01-31T05:27:25.226Z,4.23
2018-01-31T05:29:59.877Z,5.37
2018-01-31T05:32:34.070Z,4.80
2018-01-31T05:35:08.632Z,4.03
2018-01-31T05:37:42.910Z,4.77
2018-01-31T05:40:16.750Z,3.90
2018-01-31T05:42:50.859Z,4.50
2018-01-31T05:45:25.799Z,5.80
2018-01-31T05:47:59.887Z,4.27
2018-01-31T05:50:33.755Z,4.07
2018-01-31T05:53:07.793Z,5.20
2018-01-31T05:55:41.823Z,3.93
2018-01-31T05:58:15.710Z,4.63
2018-01-31T06:00:50.374Z,4.70
2018-01-31T06:03:24.634Z,4.87
2018-01-31T06:05:58.342Z,4.10
2018-01-31T06:08:32.510Z,4.50
2018-01-31T06:11:06.344Z,4.10
2018-01-31T06:13:40.369Z,4.30
2018-01-31T06:16:14.608Z,8.03
2018-01-31T06:18:49.029Z,3.63
2018-01-31T06:21:23.893Z,5.00
2018-01-31T06:23:58.349Z,3.73
2018-01-31T06:26:32.995Z,3.70
2018-01-31T06:29:07.175Z,3.40
2018-01-31T06:31:41.672Z,3.07
2018-01-31T06:34:15.941Z,3.27
2018-01-31T06:36:49.769Z,3.30
2018-01-31T06:39:23.669Z,3.70
2018-01-31T06:41:57.560Z,5.77
2018-01-31T06:44:31.334Z,7.40
2018-01-31T06:47:05.325Z,4.93
2018-01-31T06:49:39.862Z,2.87
2018-01-31T06:52:14.043Z,4.30
2018-01-31T06:54:48.720Z,3.77
2018-01-31T06:57:23.054Z,4.50
2018-01-31T06:59:57.282Z,3.70
2018-01-31T07:02:31.076Z,3.27
2018-01-31T07:05:05.792Z,3.20
2018-01-31T07:07:40.024Z,3.60
2018-01-31T07:10:14.987Z,4.60
2018-01-31T07:12:48.745Z,3.27
2018-01-31T07:15:22.661Z,4.00
2018-01-31T07:17:56.530Z,4.43
2018-01-31T07:20:30.386Z,5.17
2018-01-31T07:23:04.531Z,3.10
2018-01-31T07:25:39.316Z,3.53
2018-01-31T07:28:14.482Z,3.00
2018-01-31T07:30:48.238Z,2.80
2018-01-31T07:33:23.127Z,3.03
2018-01-31T07:35:58.021Z,3.20
2018-01-31T07:38:32.857Z,3.30
2018-01-31T07:41:06.979Z,3.00
2018-01-31T07:43:40.781Z,3.63
2018-01-31T07:46:14.653Z,3.27
2018-01-31T07:48:48.460Z,3.27
2018-01-31T07:51:23.195Z,3.17
2018-01-31T07:53:57.397Z,3.17
2018-01-31T07:56:31.888Z,3.60
2018-01-31T07:59:06.070Z,3.47
2018-01-31T08:01:40.159Z,3.27
2018-01-31T08:04:14.101Z,3.40
2018-01-31T08:06:49.053Z,3.67
2018-01-31T08:09:24.071Z,3.30
2018-01-31T08:11:58.326Z,3.30
2018-01-31T08:14:32.152Z,2.80
2018-01-31T08:17:06.201Z,3.40
2018-01-31T08:19:39.902Z,3.30
2018-01-31T08:22:13.740Z,2.50
2018-01-31T08:24:47.733Z,2.10
2018-01-31T08:27:21.861Z,2.00
2018-01-31T08:29:55.704Z,1.80
2018-01-31T08:32:30.397Z,1.90
2018-01-31T08:35:06.220Z,1.80
2018-01-31T08:37:41.572Z,2.10
2018-01-31T08:40:16.090Z,2.40
2018-01-31T08:42:50.028Z,2.00
2018-01-31T08:45:24.046Z,2.03
2018-01-31T08:47:58.828Z,2.07
2018-01-31T08:50:32.963Z,1.90
2018-01-31T08:53:07.392Z,2.07
2018-01-31T08:55:41.653Z,2.20
2018-01-31T08:58:15.795Z,2.40
2018-01-31T09:00:50.384Z,2.30
2018-01-31T09:03:25.364Z,2.70
2018-01-31T09:05:59.488Z,2.70
2018-01-31T09:08:33.366Z,3.47
2018-01-31T09:11:07.340Z,2.53
2018-01-31T09:13:42.284Z,2.93
2018-01-31T09:16:16.027Z,2.80
2018-01-31T09:18:50.120Z,3.40
2018-01-31T09:21:24.113Z,3.30
2018-01-31T09:23:58.075Z,2.70
2018-01-31T09:26:31.940Z,2.47
2018-01-31T09:29:06.595Z,4.73
2018-01-31T09:31:40.984Z,2.73
2018-01-31T09:34:15.148Z,2.60
2018-01-31T09:36:49.258Z,2.87
2018-01-31T09:39:23.754Z,2.43
2018-01-31T09:41:57.869Z,2.60
2018-01-31T09:44:31.763Z,2.90
2018-01-31T09:47:07.077Z,2.77
2018-01-31T09:49:41.578Z,2.40
2018-01-31T09:52:17.807Z,2.60
2018-01-31T09:54:50.141Z,2.93
2018-01-31T09:57:24.293Z,2.90
2018-01-31T09:59:59.314Z,3.10
2018-01-31T10:02:34.345Z,2.50
2018-01-31T10:05:09.387Z,4.07
2018-01-31T10:07:44.301Z,3.87
2018-01-31T10:10:19.253Z,3.27
2018-01-31T10:12:53.400Z,3.50
2018-01-31T10:15:28.217Z,2.60
2018-01-31T10:18:03.490Z,2.50
2018-01-31T10:20:38.648Z,2.40
2018-01-31T10:23:13.118Z,2.50
2018-01-31T10:25:48.436Z,2.40
2018-01-31T10:28:23.800Z,2.70
2018-01-31T10:30:57.953Z,2.90
2018-01-31T10:33:33.200Z,2.63
2018-01-31T10:36:09.243Z,2.60
2018-01-31T10:38:44.345Z,2.93
2018-01-31T10:41:18.659Z,3.00
2018-01-31T10:43:52.765Z,3.40
2018-01-31T10:46:26.680Z,3.20
2018-01-31T10:49:01.026Z,3.30
2018-01-31T10:51:35.237Z,3.00
2018-01-31T10:59:19.231Z,3.83
2018-01-31T11:01:53.002Z,4.57
2018-01-31T11:04:27.447Z,4.70
2018-01-31T11:07:01.892Z,4.83
2018-01-31T11:09:35.801Z,4.33
2018-01-31T11:12:09.820Z,4.80
2018-01-31T11:14:44.444Z,5.07
2018-01-31T11:17:18.752Z,4.43
2018-01-31T11:19:52.547Z,5.50
2018-01-31T11:22:26.521Z,4.47
2018-01-31T11:25:00.251Z,3.70
2018-01-31T11:27:34.932Z,4.20
2018-01-31T11:30:09.414Z,4.17
2018-01-31T11:32:43.097Z,4.33
2018-01-31T11:35:17.629Z,4.17
2018-01-31T11:37:52.912Z,3.90
2018-01-31T11:40:27.133Z,4.57
2018-01-31T11:43:01.397Z,4.60
2018-01-31T11:45:35.468Z,6.90
2018-01-31T11:48:10.282Z,4.80
2018-01-31T11:50:44.416Z,5.57
2018-01-31T11:53:18.444Z,5.50
2018-01-31T11:55:54.016Z,6.63
2018-01-31T11:58:28.405Z,7.50
2018-01-31T12:01:02.492Z,6.50
2018-01-31T12:03:36.393Z,6.30
2018-01-31T12:06:11.136Z,6.07
2018-01-31T12:08:45.337Z,6.30
2018-01-31T12:11:19.292Z,5.90
2018-01-31T12:14:17.281Z,6.13
2018-01-31T12:17:03.125Z,6.30
2018-01-31T12:22:59.520Z,6.93
2018-01-31T12:28:51.465Z,8.03
2018-01-31T12:31:37.582Z,6.77
2018-01-31T12:34:23.089Z,5.23
2018-01-31T12:37:08.849Z,6.10
2018-01-31T12:39:42.372Z,4.80
2018-01-31T12:42:16.070Z,4.90
2018-01-31T12:44:49.784Z,5.03
2018-01-31T12:47:36.667Z,4.60
2018-01-31T12:50:22.398Z,4.60
2018-01-31T12:53:08.290Z,4.17
2018-01-31T12:55:54.076Z,4.50
2018-01-31T12:58:40.199Z,4.27
2018-01-31T13:01:25.856Z,4.60
2018-01-31T13:07:33.863Z,4.43
2018-01-31T13:10:20.204Z,4.13
2018-01-31T13:13:07.110Z,10.50
2018-01-31T13:15:53.554Z,4.77
2018-01-31T13:18:39.628Z,5.17
2018-01-31T13:21:25.658Z,6.07
2018-01-31T13:24:11.573Z,4.97
2018-01-31T13:26:57.681Z,4.50
2018-01-31T13:29:32.859Z,5.80
2018-01-31T13:32:19.962Z,4.60
2018-01-31T13:34:53.892Z,4.83
2018-01-31T13:37:45.521Z,4.47
2018-01-31T13:40:32.173Z,4.60
2018-01-31T13:43:18.106Z,3.60
2018-01-31T13:46:04.826Z,4.17
2018-01-31T13:48:51.279Z,6.33
2018-01-31T13:51:37.008Z,3.83
2018-01-31T13:54:23.796Z,4.20
2018-01-31T13:57:09.924Z,4.57
2018-01-31T13:59:51.538Z,3.93
2018-01-31T14:02:37.971Z,4.27
2018-01-31T14:05:23.867Z,3.67
2018-01-31T14:08:09.495Z,4.77
2018-01-31T14:13:59.203Z,4.63
2018-01-31T14:16:46.368Z,4.57
2018-01-31T14:19:32.198Z,4.50
2018-01-31T14:22:18.860Z,3.97
2018-01-31T14:25:04.825Z,5.33
2018-01-31T14:27:50.815Z,3.97
2018-01-31T14:30:36.586Z,4.63
2018-01-31T14:33:22.521Z,4.73
2018-01-31T14:36:08.240Z,5.60
2018-01-31T14:38:41.737Z,4.53
2018-01-31T14:41:15.520Z,3.50
2018-01-31T14:43:49.490Z,4.13
2018-01-31T14:46:23.298Z,5.13
2018-01-31T14:48:57.580Z,5.40
2018-01-31T14:51:31.398Z,4.43
2018-01-31T14:54:05.073Z,4.77
2018-01-31T14:56:38.909Z,4.53
2018-01-31T14:59:12.062Z,4.60
2018-01-31T15:01:46.591Z,4.70
2018-01-31T15:04:20.504Z,4.33
2018-01-31T15:06:54.339Z,3.83
2018-01-31T15:09:28.869Z,3.73
2018-01-31T15:12:02.872Z,4.60
2018-01-31T15:14:36.544Z,4.33
2018-01-31T15:17:09.648Z,3.90
2018-01-31T15:19:43.494Z,4.07
2018-01-31T15:22:18.141Z,4.20
2018-01-31T15:24:52.116Z,4.80
2018-01-31T15:27:26.574Z,5.18
2018-01-31T15:30:01.348Z,4.67
2018-01-31T15:32:35.478Z,4.37
2018-01-31T15:35:09.456Z,4.13
2018-01-31T15:37:43.973Z,4.40
2018-01-31T15:40:18.012Z,4.67
2018-01-31T15:42:52.493Z,5.80
2018-01-31T15:45:26.368Z,8.43
2018-01-31T15:48:00.020Z,7.10
2018-01-31T15:50:33.957Z,7.23
2018-01-31T15:53:07.510Z,6.70
2018-01-31T15:55:41.394Z,6.77
2018-01-31T15:58:15.841Z,6.47
2018-01-31T16:00:50.009Z,6.60
2018-01-31T16:03:23.928Z,6.07
2018-01-31T16:05:57.309Z,5.20
2018-01-31T16:08:31.042Z,5.70
2018-01-31T16:11:04.785Z,6.57
2018-01-31T16:13:38.687Z,5.83
2018-01-31T16:16:13.108Z,6.67
2018-01-31T16:18:59.301Z,7.63
2018-01-31T16:21:33.229Z,6.33
2018-01-31T16:24:07.884Z,6.20
2018-01-31T16:26:42.843Z,6.40
2018-01-31T16:29:28.842Z,6.87
2018-01-31T16:32:14.593Z,6.80
2018-01-31T16:34:49.208Z,5.30
2018-01-31T16:37:23.345Z,6.40
2018-01-31T16:39:57.445Z,5.70
2018-01-31T16:42:31.994Z,5.30
2018-01-31T16:45:05.704Z,5.50
2018-01-31T16:47:39.456Z,4.90
2018-01-31T16:50:14.164Z,5.43
2018-01-31T16:52:48.026Z,5.20
2018-01-31T16:55:21.895Z,5.77
2018-01-31T16:57:55.749Z,7.07
2018-01-31T17:00:29.855Z,5.60
2018-01-31T17:03:03.825Z,6.27
2018-01-31T17:05:37.908Z,5.53
2018-01-31T17:08:11.780Z,5.70
2018-01-31T17:10:46.688Z,5.47
2018-01-31T17:13:22.303Z,4.90
2018-01-31T17:15:56.081Z,4.80
2018-01-31T17:18:30.000Z,5.50
2018-01-31T17:21:04.033Z,4.20
2018-01-31T17:23:38.271Z,4.50
2018-01-31T17:26:21.080Z,5.47
2018-01-31T17:28:55.960Z,5.90
2018-01-31T17:31:31.084Z,5.73
2018-01-31T17:34:06.047Z,4.53
2018-01-31T17:36:40.165Z,7.23
2018-01-31T17:39:13.970Z,5.00
2018-01-31T17:41:48.638Z,5.70
2018-01-31T17:44:23.020Z,5.33
2018-01-31T17:46:56.861Z,4.07
2018-01-31T17:49:31.424Z,7.73
2018-01-31T17:52:05.500Z,4.20
2018-01-31T17:54:39.241Z,4.60
2018-01-31T17:57:12.963Z,4.00
2018-01-31T17:59:46.841Z,5.00
2018-01-31T18:02:21.417Z,4.53
2018-01-31T18:04:55.188Z,4.47
2018-01-31T18:07:29.772Z,4.93
2018-01-31T18:10:04.531Z,6.00
2018-01-31T18:12:38.725Z,3.77
2018-01-31T18:15:12.400Z,3.67
2018-01-31T18:17:46.105Z,3.97
2018-01-31T18:20:19.875Z,4.40
2018-01-31T18:22:53.581Z,2.97
2018-01-31T18:25:27.497Z,4.33
2018-01-31T18:28:02.153Z,3.20
2018-01-31T18:30:36.428Z,3.00
2018-01-31T18:33:10.212Z,5.97
2018-01-31T18:35:44.866Z,5.17
2018-01-31T18:38:18.917Z,3.97
2018-01-31T18:40:52.832Z,9.00
2018-01-31T18:43:26.888Z,3.43
2018-01-31T18:46:01.602Z,3.90
2018-01-31T18:48:36.596Z,4.03
2018-01-31T18:51:10.850Z,4.50
2018-01-31T18:53:44.653Z,3.90
2018-01-31T18:56:18.565Z,3.30
2018-01-31T18:58:53.266Z,4.17
2018-01-31T19:01:27.908Z,3.57
2018-01-31T19:04:02.630Z,4.70
2018-01-31T19:06:37.875Z,4.93
2018-01-31T19:09:12.171Z,3.87
2018-01-31T19:11:45.861Z,3.87
2018-01-31T19:14:20.869Z,4.23
2018-01-31T19:16:54.857Z,3.60
2018-01-31T19:19:28.741Z,4.00
2018-01-31T19:22:03.420Z,10.43
2018-01-31T19:24:37.389Z,4.00
2018-01-31T19:27:11.904Z,3.67
2018-01-31T19:29:46.799Z,4.67
2018-01-31T19:32:20.853Z,4.07
2018-01-31T19:34:55.334Z,3.63
2018-01-31T19:37:29.512Z,4.07
2018-01-31T19:40:03.953Z,4.30
2018-01-31T19:42:38.939Z,4.50
2018-01-31T19:45:12.949Z,3.90
2018-01-31T19:47:47.555Z,5.73
2018-01-31T19:50:21.589Z,4.50
2018-01-31T19:52:55.425Z,3.10
2018-01-31T19:55:29.409Z,4.23
2018-01-31T19:58:04.254Z,4.37
2018-01-31T20:00:38.313Z,3.87
2018-01-31T20:03:12.349Z,4.93
2018-01-31T20:05:47.487Z,3.70
2018-01-31T20:08:21.657Z,5.47
2018-01-31T20:10:55.241Z,3.40
2018-01-31T20:13:29.113Z,4.40
2018-01-31T20:16:02.744Z,3.40
2018-01-31T20:18:36.551Z,4.40
2018-01-31T20:21:10.320Z,4.10
2018-01-31T20:23:45.039Z,3.50
2018-01-31T20:26:19.064Z,3.80
2018-01-31T20:28:52.896Z,3.67
2018-01-31T20:31:27.372Z,3.47
2018-01-31T20:34:01.235Z,3.57
2018-01-31T20:36:35.131Z,3.27
2018-01-31T20:39:08.912Z,3.70
2018-01-31T20:41:43.389Z,3.33
2018-01-31T20:44:17.377Z,3.10
2018-01-31T20:46:51.448Z,3.43
2018-01-31T20:49:25.474Z,2.70
2018-01-31T20:51:59.353Z,3.63
2018-01-31T20:54:34.098Z,2.80
2018-01-31T20:57:08.328Z,2.67
2018-01-31T20:59:42.148Z,3.07
2018-01-31T21:02:15.905Z,3.10
2018-01-31T21:04:51.410Z,2.97
2018-01-31T21:07:26.360Z,3.03
2018-01-31T21:10:00.629Z,3.23
2018-01-31T21:12:35.710Z,2.80
2018-01-31T21:15:09.993Z,3.30
2018-01-31T21:17:43.877Z,3.50
2018-01-31T21:20:17.788Z,3.90
2018-01-31T21:22:51.722Z,3.00
2018-01-31T21:25:26.211Z,7.87
2018-01-31T21:28:00.214Z,3.27
2018-01-31T21:30:34.876Z,2.93
2018-01-31T21:33:08.709Z,2.90
2018-01-31T21:35:42.456Z,3.20
2018-01-31T21:38:16.192Z,2.63
2018-01-31T21:40:50.864Z,2.70
2018-01-31T21:43:24.944Z,2.60
2018-01-31T21:45:58.840Z,2.50
2018-01-31T21:48:33.489Z,2.70
2018-01-31T21:51:07.426Z,2.33
2018-01-31T21:53:41.355Z,2.60
2018-01-31T21:56:16.392Z,2.57
2018-01-31T21:58:51.289Z,2.47
2018-01-31T22:01:25.489Z,2.87
2018-01-31T22:03:59.104Z,2.30
2018-01-31T22:06:32.850Z,2.77
2018-01-31T22:09:07.359Z,2.97
2018-01-31T22:11:41.092Z,3.00
2018-01-31T22:14:14.968Z,2.40
2018-01-31T22:16:49.583Z,2.90
2018-01-31T22:19:23.699Z,2.83
2018-01-31T22:21:57.533Z,2.90
2018-01-31T22:24:31.365Z,2.90
2018-01-31T22:27:05.317Z,2.63
2018-01-31T22:29:38.995Z,2.57
2018-01-31T22:32:12.896Z,2.67
2018-01-31T22:34:47.628Z,1.90
2018-01-31T22:37:21.849Z,1.80
2018-01-31T22:39:55.780Z,1.90
2018-01-31T22:42:29.611Z,2.00
2018-01-31T22:45:03.368Z,2.20
2018-01-31T22:47:37.218Z,2.50
2018-01-31T22:50:11.312Z,2.10
2018-01-31T22:52:45.782Z,2.37
2018-01-31T22:55:20.867Z,2.30
2018-01-31T22:57:55.602Z,2.30
2018-01-31T23:00:30.084Z,2.13
2018-01-31T23:03:04.230Z,2.40
2018-01-31T23:05:38.932Z,3.57
2018-01-31T23:08:13.012Z,2.57
2018-01-31T23:10:47.533Z,2.50
2018-01-31T23:13:21.277Z,2.13
2018-01-31T23:15:55.189Z,2.83
2018-01-31T23:18:29.166Z,3.07
2018-01-31T23:21:03.252Z,3.20
2018-01-31T23:23:37.237Z,3.10
2018-01-31T23:26:11.128Z,8.37
2018-01-31T23:28:44.974Z,3.87
2018-01-31T23:31:18.752Z,2.83
2018-01-31T23:33:52.659Z,2.43
2018-01-31T23:36:26.364Z,2.70
2018-01-31T23:39:00.436Z,2.90
2018-01-31T23:41:34.282Z,2.50
2018-01-31T23:44:08.333Z,2.20
2018-01-31T23:46:41.984Z,2.30
2018-01-31T23:49:15.808Z,2.20
2018-01-31T23:51:49.661Z,2.90
2018-01-31T23:54:23.425Z,4.30
2018-01-31T23:56:57.035Z,3.83
2018-01-31T23:59:31.844Z,5.80
